Startpagina
METAR-TAF:

METAR-TAF

Vliegvelden :

Tongatapu, Tonga

breedte: 21-14S, lengte: 175-09W, hoogte: 38 m

Actueel weer

Dit bericht is 1 uur en het 4 minuten geleden gemaakt, om 09:00 UTC
Weinig wind
Temperatuur 26°C
Vochtigheid 94%
Druk 1010 hPa
Zicht 10 km of meer
Verspreide wolken op 1700 ft, Stapelwolken.
Gebroken wolken op 30000 ft

METAR: NFTF 190900Z 00000KT 9999 SCT017TCU BKN300 26/25 Q1010

Tijdstip: 23:04 (10:04 UTC)

Verwachting

Dit bericht is 5 uur en het 6 minuten geleden gemaakt, om 04:58 UTC
Verwachting geldig van 19 om 06 UTC tot 20 om 06 UTC
Wind 9 kt uit het zuidoosten
Zicht 10 km of meer
Verspreide wolken op 1700 ft
Verspreide wolken op 10000 ft

TAF: NFTF 190458Z 1906/2006 14009KT 9999 SCT017 SCT100

Waarnemingen en weersverwachtingen van meer dan 4000 vliegvelden (METAR en TAF).

De beschikbare stations zijn de gele en rode punten op de kaart.

Ga met uw muis naar het station om de naam te zien.

Klik dan om waarnemingen en weersverwachtingen te zien.

kaart wijzigen: klik op de groene knoppen met een zwart kruis om in te zoomen, op de groene knop met een streepje om uit te zoomen of op de groene pijlen voor aangrenzende kaarten.


METAR-TAF: